Time;durP1;ratioP1;P1;durP2;ratioP2;P2;SDS_P1;SDS_P2;PMS_P1;PMS_P2;Temp;Humidity;BMP_temperature;BMP_pressure;BME280_temperature;BME280_humidity;BME280_pressure;Samples;Min_cycle;Max_cycle;Signal;HPM_P1;HPM_P2
2022/06/10 00:01:09;;;;;;;20.43;13.58;;;;;;;21.86;44.86;99916.41;1697475;84;20995;-74
2022/06/10 00:03:36;;;;;;;20.55;13.30;;;;;;;21.68;45.37;99909.77;1665941;84;20984;-74
2022/06/10 00:06:06;;;;;;;17.02;12.75;;;;;;;21.52;45.75;99917.39;1689429;85;22560;-73
2022/06/10 00:08:36;;;;;;;18.73;13.20;;;;;;;21.33;46.09;99909.63;1693472;83;21020;-74
2022/06/10 00:11:04;;;;;;;21.15;13.68;;;;;;;21.18;46.66;99915.63;1689535;83;21032;-73
2022/06/10 07:14:32;;;;;;;13.10;8.83;;;;;;;25.68;42.04;100091.95;1678916;84;21033;-74
2022/06/10 07:16:58;;;;;;;17.05;9.93;;;;;;;25.71;41.17;100099.33;1668661;85;21021;-75
2022/06/10 07:19:25;;;;;;;14.15;8.68;;;;;;;25.72;41.13;100094.22;1665938;85;20996;-76
2022/06/10 07:21:52;;;;;;;13.18;8.45;;;;;;;25.74;40.31;100097.52;1665222;85;21080;-74
2022/06/10 07:24:18;;;;;;;13.10;7.90;;;;;;;25.74;39.99;100097.52;1675042;85;21072;-72
2022/06/10 07:26:46;;;;;;;13.78;7.60;;;;;;;25.80;39.50;100100.67;1676743;85;22348;-69
2022/06/10 07:29:13;;;;;;;11.65;7.03;;;;;;;25.87;39.67;100101.42;1679011;84;20996;-72
2022/06/10 07:31:41;;;;;;;10.80;6.65;;;;;;;26.00;38.90;100097.70;1663113;86;21072;-72
2022/06/10 07:34:08;;;;;;;9.88;6.87;;;;;;;26.11;39.08;100103.68;1663086;86;21039;-71
2022/06/10 07:36:38;;;;;;;10.72;6.65;;;;;;;26.22;38.49;100108.30;1663021;86;21399;-71
2022/06/10 07:39:05;;;;;;;11.38;5.87;;;;;;;26.28;38.14;100105.22;1672812;84;21906;-73
2022/06/10 07:44:20;;;;;;;8.70;5.50;;;;;;;26.49;35.98;100104.70;1684270;84;20976;-72
2022/06/10 07:46:49;;;;;;;7.42;5.08;;;;;;;26.57;36.59;100104.90;1675745;84;21575;-71
2022/06/10 07:49:16;;;;;;;11.95;5.75;;;;;;;26.69;36.26;100115.22;1664082;85;20975;-69
2022/06/10 07:51:44;;;;;;;9.35;4.70;;;;;;;26.76;36.66;100115.41;1674985;85;21909;-71
2022/06/10 07:54:11;;;;;;;10.08;4.05;;;;;;;26.89;36.50;100116.23;1673571;84;21076;-71
2022/06/10 07:56:39;;;;;;;7.78;4.08;;;;;;;27.03;34.12;100126.66;1671301;84;21435;-72
2022/06/10 07:59:06;;;;;;;10.72;4.30;;;;;;;27.10;33.84;100124.63;1688787;84;21420;-72
2022/06/10 08:01:34;;;;;;;5.22;3.72;;;;;;;27.17;33.89;100123.70;1682458;83;20997;-71
2022/06/10 08:04:00;;;;;;;9.38;4.28;;;;;;;27.20;33.26;100119.97;1682330;85;21851;-74
2022/06/10 08:06:29;;;;;;;7.25;4.47;;;;;;;27.23;33.53;100118.16;1673140;84;20949;-72
2022/06/10 08:08:55;;;;;;;9.55;4.65;;;;;;;27.25;33.33;100118.75;1672985;85;21056;-72
2022/06/10 08:11:23;;;;;;;7.87;3.55;;;;;;;27.29;33.50;100125.33;1694920;84;20953;-73
2022/06/10 08:13:51;;;;;;;7.25;3.30;;;;;;;27.41;31.82;100125.34;1685558;83;21020;-73
2022/06/10 08:16:18;;;;;;;5.70;3.12;;;;;;;27.50;32.42;100120.34;1671347;84;22624;-73
2022/06/10 08:18:46;;;;;;;5.87;2.60;;;;;;;27.59;30.99;100133.30;1661184;86;20984;-76
2022/06/10 08:24:00;;;;;;;8.03;2.27;;;;;;;27.72;30.41;100128.19;1676389;84;21028;-71
2022/06/10 08:26:26;;;;;;;4.85;2.12;;;;;;;27.74;29.57;100123.88;1680852;84;21064;-70
2022/06/10 08:28:55;;;;;;;5.70;2.10;;;;;;;27.78;29.76;100121.78;1661216;85;22621;-72
2022/06/10 08:31:21;;;;;;;6.20;1.70;;;;;;;27.89;29.93;100120.09;1635467;86;21023;-72
2022/06/10 08:33:48;;;;;;;4.72;1.98;;;;;;;28.02;29.53;100119.00;1683084;84;21125;-73
2022/06/10 08:36:14;;;;;;;6.22;2.25;;;;;;;28.12;29.29;100121.38;1677621;84;21041;-70
2022/06/10 08:38:42;;;;;;;5.67;2.20;;;;;;;28.22;29.08;100118.02;1669871;84;20998;-70
2022/06/10 08:41:17;;;;;;;4.92;2.12;;;;;;;28.30;28.70;100114.94;1685790;85;22214;-70
2022/06/10 08:44:07;;;;;;;7.58;1.90;;;;;;;28.33;28.96;100109.02;1670535;85;21020;-71
2022/06/10 08:47:07;;;;;;;4.92;1.70;;;;;;;28.43;28.02;100118.70;1671891;85;20968;-70
2022/06/10 08:49:54;;;;;;;6.10;1.95;;;;;;;28.56;28.55;100119.44;1681112;85;20996;-69
2022/06/10 08:52:48;;;;;;;4.70;1.90;;;;;;;28.70;27.87;100121.60;1680196;84;21078;-71
2022/06/10 08:55:39;;;;;;;5.65;1.90;;;;;;;28.75;27.36;100118.13;1649953;85;22593;-72
2022/06/10 08:58:19;;;;;;;7.95;1.40;;;;;;;28.76;26.39;100120.62;1683814;84;21319;-69
2022/06/10 09:00:48;;;;;;;5.87;1.57;;;;;;;28.75;25.67;100120.84;1639668;86;21045;-71
2022/06/10 09:03:28;;;;;;;2.85;1.50;;;;;;;28.77;27.04;100129.06;1660048;85;21283;-73
2022/06/10 09:06:04;;;;;;;8.00;1.25;;;;;;;28.76;25.18;100126.59;1658448;85;21054;-71
2022/06/10 09:08:44;;;;;;;7.00;1.65;;;;;;;28.67;25.72;100126.72;1656542;85;21940;-71
2022/06/10 09:11:28;;;;;;;3.05;1.65;;;;;;;28.66;26.15;100121.82;1654795;85;21022;-74
2022/06/10 09:14:02;;;;;;;9.95;1.80;;;;;;;28.75;25.62;100121.67;1654157;86;21093;-73
2022/06/10 09:16:51;;;;;;;10.32;1.77;;;;;;;28.81;26.24;100115.79;1669555;84;21033;-73
2022/06/10 09:19:36;;;;;;;5.83;1.42;;;;;;;28.88;25.72;100113.73;1680748;84;21458;-73
2022/06/10 09:22:18;;;;;;;3.80;1.40;;;;;;;28.96;25.36;100120.16;1681878;84;21918;-73
2022/06/10 09:25:05;;;;;;;8.08;1.50;;;;;;;29.03;24.80;100118.59;1618684;85;21143;-73
2022/06/10 09:27:36;;;;;;;5.85;1.32;;;;;;;29.06;24.52;100112.68;1674266;83;21118;-73
2022/06/10 09:30:05;;;;;;;4.72;1.37;;;;;;;29.11;24.99;100113.28;1650432;85;21031;-73
2022/06/10 09:32:58;;;;;;;3.27;1.40;;;;;;;29.23;24.60;100105.83;1671237;84;21455;-73
2022/06/10 09:35:31;;;;;;;5.65;1.42;;;;;;;29.36;23.90;100106.84;1668072;85;21916;-72
2022/06/10 09:38:12;;;;;;;5.83;1.40;;;;;;;29.44;24.47;100111.03;1661659;85;21143;-72
2022/06/10 09:40:44;;;;;;;2.83;1.60;;;;;;;29.57;24.51;100115.58;1663811;85;21004;-72
2022/06/10 09:43:47;;;;;;;6.17;1.40;;;;;;;29.76;24.60;100109.82;1689834;83;21024;-72
2022/06/10 09:46:42;;;;;;;5.87;1.50;;;;;;;29.81;23.22;100123.47;1694405;83;21016;-73
2022/06/10 09:49:27;;;;;;;4.65;1.47;;;;;;;29.78;23.89;100117.19;1686553;85;21825;-73
2022/06/10 09:52:11;;;;;;;4.97;1.40;;;;;;;29.81;23.75;100120.75;1685878;85;20957;-72
2022/06/10 09:55:13;;;;;;;2.27;1.10;;;;;;;29.78;23.65;100118.55;1685626;85;21057;-72
2022/06/10 09:58:06;;;;;;;11.80;1.75;;;;;;;29.78;23.85;100115.83;1667670;84;21060;-72
2022/06/10 10:00:59;;;;;;;5.72;1.37;;;;;;;30.19;24.17;100120.66;1684275;84;21016;-72
2022/06/10 10:03:53;;;;;;;4.37;1.32;;;;;;;30.19;24.17;100120.66;1667590;86;21925;-73
2022/06/10 10:06:35;;;;;;;;;;;;;;;30.43;23.38;100125.81;1679154;84;21008;-72
2022/06/10 10:09:28;;;;;;;4.25;1.20;;;;;;;30.57;22.99;100120.20;1680232;83;20210;-72
2022/06/10 10:12:30;;;;;;;4.53;1.17;;;;;;;30.70;23.17;100125.27;1614338;87;20979;-72
2022/06/10 10:15:28;;;;;;;8.68;1.50;;;;;;;30.74;22.08;100126.38;1643944;86;21458;-72
2022/06/10 10:18:22;;;;;;;3.20;1.37;;;;;;;30.70;22.79;100113.53;1639656;87;21827;-72
2022/06/10 10:21:11;;;;;;;4.97;1.50;;;;;;;30.91;23.23;100113.14;1598753;89;21019;-72
2022/06/10 10:23:49;;;;;;;4.28;1.60;;;;;;;30.99;22.28;100115.38;1608855;87;21124;-72
2022/06/10 10:26:26;;;;;;;4.15;1.57;;;;;;;30.94;22.79;100108.52;1656003;86;20956;-73
2022/06/10 10:29:04;;;;;;;3.42;1.70;;;;;;;31.01;22.29;100111.30;1643588;86;20973;-72
2022/06/10 10:31:38;;;;;;;7.45;2.10;;;;;;;31.13;23.56;100106.19;1643693;87;22357;-73
2022/06/10 10:34:05;;;;;;;3.60;2.30;;;;;;;31.29;23.03;100113.41;1641075;86;20992;-73
2022/06/10 10:36:46;;;;;;;6.47;2.17;;;;;;;31.36;23.30;100102.23;1643615;86;21439;-73
2022/06/10 10:39:34;;;;;;;6.37;2.42;;;;;;;31.45;22.85;100104.73;1646394;86;21156;-73
2022/06/10 10:42:06;;;;;;;4.72;2.15;;;;;;;31.49;22.84;100099.05;1646939;86;21084;-71
2022/06/10 10:44:46;;;;;;;7.58;2.30;;;;;;;31.50;23.12;100100.14;1645417;87;21901;-72
2022/06/10 10:47:17;;;;;;;8.60;2.37;;;;;;;31.56;23.16;100099.62;1614773;88;21060;-72
2022/06/10 10:50:01;;;;;;;8.25;2.10;;;;;;;31.56;23.20;100099.62;1629931;88;20960;-72
2022/06/10 10:52:34;;;;;;;6.70;2.50;;;;;;;31.65;23.46;100099.91;1632590;86;21095;-72
2022/06/10 10:55:09;;;;;;;8.10;2.60;;;;;;;31.85;23.84;100099.48;1629681;87;21111;-72
2022/06/10 10:57:37;;;;;;;21.05;3.85;;;;;;;32.14;23.06;100094.36;1628794;87;21840;-73
2022/06/10 11:00:13;;;;;;;5.20;2.50;;;;;;;32.38;23.45;100089.75;1629621;88;20968;-73
2022/06/10 11:02:53;;;;;;;5.15;2.40;;;;;;;32.69;23.30;100100.13;1633544;87;21020;-73
2022/06/10 11:05:40;;;;;;;8.25;2.60;;;;;;;32.96;22.31;100092.48;1641195;86;21021;-73
2022/06/10 11:08:16;;;;;;;4.55;2.30;;;;;;;33.11;22.54;100099.03;1615648;87;20969;-73
2022/06/10 11:11:19;;;;;;;4.45;2.42;;;;;;;33.36;21.37;100094.04;1646238;87;21917;-73
2022/06/10 11:14:02;;;;;;;5.47;2.17;;;;;;;33.47;21.22;100087.42;1639069;87;20985;-73
2022/06/10 11:16:42;;;;;;;8.38;3.00;;;;;;;33.48;20.82;100086.32;1649209;85;21051;-73
2022/06/10 11:19:23;;;;;;;7.62;2.40;;;;;;;33.48;21.99;100080.84;1669321;85;21059;-72
2022/06/10 11:21:59;;;;;;;8.83;2.62;;;;;;;33.61;20.80;100082.17;1677374;84;21064;-73
2022/06/10 11:24:45;;;;;;;9.28;2.45;;;;;;;33.58;21.63;100087.64;1678451;85;22000;-73
2022/06/10 11:27:27;;;;;;;8.30;2.50;;;;;;;33.59;21.71;100078.35;1694361;83;20961;-73
2022/06/10 11:30:13;;;;;;;10.98;2.58;;;;;;;33.81;21.59;100071.92;1687366;84;20980;-73
2022/06/10 11:32:51;;;;;;;6.55;2.70;;;;;;;33.93;20.69;100070.78;1675262;84;21033;-74
2022/06/10 11:35:42;;;;;;;9.45;2.40;;;;;;;33.74;20.93;100077.44;1687398;85;21006;-72
2022/06/10 11:38:22;;;;;;;7.62;2.20;;;;;;;33.70;20.50;100074.45;1617264;87;21813;-72
2022/06/10 11:40:52;;;;;;;6.35;2.47;;;;;;;33.77;20.79;100066.73;1645598;87;21509;-71
2022/06/10 11:43:42;;;;;;;6.65;2.12;;;;;;;33.73;20.73;100068.41;1687069;84;21495;-71
2022/06/10 11:46:37;;;;;;;5.95;2.27;;;;;;;33.86;21.73;100068.32;1686881;84;21535;-73
2022/06/10 11:49:26;;;;;;;4.75;2.20;;;;;;;34.20;20.82;100071.70;1687267;85;20970;-73
2022/06/10 11:52:07;;;;;;;4.92;2.42;;;;;;;34.35;19.32;100075.68;1686650;84;22125;-73
2022/06/10 11:55:00;;;;;;;7.05;2.10;;;;;;;34.20;20.09;100068.41;1686901;84;21012;-73
2022/06/10 12:00:43;;;;;;;5.83;2.40;;;;;;;34.00;19.47;100072.11;1686556;85;20984;-73
2022/06/10 12:03:16;;;;;;;3.87;1.95;;;;;;;33.85;20.20;100064.77;1692351;83;21013;-73
2022/06/10 12:06:01;;;;;;;12.07;2.02;;;;;;;33.70;19.82;100066.23;1684010;83;22533;-73
2022/06/10 12:08:56;;;;;;;5.37;1.90;;;;;;;33.56;19.87;100064.65;1687027;84;21058;-73
2022/06/10 12:11:50;;;;;;;5.50;2.00;;;;;;;33.49;19.95;100065.53;1667547;84;20988;-73
2022/06/10 12:14:40;;;;;;;4.12;1.80;;;;;;;33.39;20.29;100057.87;1667511;86;21447;-73
2022/06/10 12:17:28;;;;;;;3.62;1.90;;;;;;;33.40;20.34;100056.81;1687040;83;21443;-73
2022/06/10 12:20:10;;;;;;;4.55;2.08;;;;;;;33.39;20.36;100052.41;1692393;84;21864;-73
2022/06/10 12:22:37;;;;;;;5.67;1.87;;;;;;;33.41;20.90;100048.86;1663292;85;20962;-73
2022/06/10 12:25:28;;;;;;;6.65;2.12;;;;;;;33.74;20.29;100051.42;1675017;85;21008;-71
2022/06/10 12:28:21;;;;;;;2.47;1.50;;;;;;;33.93;20.51;100050.23;1673359;84;21450;-73
2022/06/10 12:30:54;;;;;;;8.90;2.00;;;;;;;34.12;19.97;100046.53;1676598;85;21107;-73
2022/06/10 12:33:31;;;;;;;3.30;1.70;;;;;;;34.07;19.62;100047.14;1675891;85;21883;-74
2022/06/10 12:35:58;;;;;;;4.12;1.90;;;;;;;33.94;19.74;100045.84;1670538;85;21056;-74
2022/06/10 12:38:37;;;;;;;5.00;1.82;;;;;;;33.94;19.84;100046.39;1648312;85;21098;-73
2022/06/10 12:41:14;;;;;;;6.15;2.12;;;;;;;33.90;19.90;100043.97;1671800;84;21495;-73
2022/06/10 12:43:53;;;;;;;4.28;2.00;;;;;;;33.90;19.96;100040.67;1669294;85;21060;-73
2022/06/10 12:46:42;;;;;;;5.30;1.90;;;;;;;33.98;20.01;100044.18;1679438;84;51109;-72
2022/06/10 12:49:33;;;;;;;4.53;1.90;;;;;;;34.17;19.89;100040.20;1656923;85;21017;-73
2022/06/10 12:52:34;;;;;;;6.17;1.90;;;;;;;34.29;19.49;100041.20;1676946;85;21020;-73
2022/06/10 12:55:24;;;;;;;3.20;1.80;;;;;;;34.13;20.09;100037.20;1657232;85;21531;-73
2022/06/10 12:57:51;;;;;;;3.60;1.92;;;;;;;34.17;20.19;100040.20;1675051;85;21051;-74
2022/06/10 13:00:38;;;;;;;5.95;1.90;;;;;;;34.23;20.25;100044.53;1675513;84;21873;-74
2022/06/10 13:03:19;;;;;;;4.90;2.05;;;;;;;34.29;20.07;100037.09;1657736;84;21009;-73
2022/06/10 13:05:48;;;;;;;3.58;1.95;;;;;;;34.29;19.77;100034.34;1660926;85;21017;-73
2022/06/10 13:08:41;;;;;;;8.93;2.80;;;;;;;34.19;19.70;100042.66;1676843;85;21017;-73
2022/06/10 13:11:09;;;;;;;5.67;2.15;;;;;;;33.97;20.12;100037.59;1686237;84;21048;-73
2022/06/10 13:13:37;;;;;;;4.78;2.17;;;;;;;34.10;20.70;100043.27;1678583;85;21777;-72
2022/06/10 13:16:42;;;;;;;3.25;1.98;;;;;;;34.48;20.14;100053.13;1685190;84;21490;-73
2022/06/10 13:19:50;;;;;;;6.60;2.08;;;;;;;34.69;19.63;100050.45;1678118;84;21519;-73
2022/06/10 13:22:32;;;;;;;23.77;3.67;;;;;;;34.51;19.61;100047.62;1647529;86;21028;-73
2022/06/10 13:25:04;;;;;;;7.55;2.27;;;;;;;34.64;20.07;100046.38;1659060;85;21051;-73
2022/06/10 13:27:33;;;;;;;;;;;;;;;34.81;19.54;100050.06;1676980;84;21946;-73
2022/06/10 13:30:22;;;;;;;4.50;1.95;;;;;;;34.83;19.00;100045.65;1647484;87;20138;-73
2022/06/10 13:33:02;;;;;;;5.15;1.82;;;;;;;34.75;19.11;100040.27;1657976;85;21034;-73
2022/06/10 13:35:48;;;;;;;5.12;2.20;;;;;;;34.57;18.64;100049.22;1674947;85;20978;-72
2022/06/10 13:38:31;;;;;;;4.92;2.02;;;;;;;34.47;19.37;100045.20;1667298;85;20954;-73
2022/06/10 13:43:52;;;;;;;5.25;2.08;;;;;;;34.68;19.04;100041.15;1675017;85;20989;-73
2022/06/10 13:46:30;;;;;;;8.03;2.60;;;;;;;34.55;19.11;100033.58;1688721;84;21018;-73
2022/06/10 13:52:31;;;;;;;5.40;2.17;;;;;;;34.32;19.30;100050.22;1679556;85;21016;-73
2022/06/10 13:54:59;;;;;;;7.60;2.40;;;;;;;34.36;19.07;100047.19;1679079;85;22477;-73
2022/06/10 13:57:32;;;;;;;5.30;2.20;;;;;;;34.17;19.79;100034.73;1674335;85;20959;-73
2022/06/10 14:00:09;;;;;;;6.72;2.58;;;;;;;34.27;20.04;100039.31;1664323;85;21024;-73
2022/06/10 14:02:38;;;;;;;5.85;2.40;;;;;;;34.68;19.51;100039.22;1684687;85;20996;-73
2022/06/10 14:05:06;;;;;;;6.70;2.20;;;;;;;34.96;19.66;100034.84;1674913;85;21020;-72
2022/06/10 14:07:41;;;;;;;7.33;2.05;;;;;;;34.94;19.42;100036.25;1674635;85;21789;-73
2022/06/10 14:10:28;;;;;;;5.80;2.37;;;;;;;34.84;19.51;100034.94;1674778;85;21083;-73
2022/06/10 14:13:04;;;;;;;3.65;2.40;;;;;;;34.76;19.31;100030.11;1674783;85;20962;-73
2022/06/10 14:15:34;;;;;;;6.75;2.22;;;;;;;34.61;19.10;100035.99;1674610;85;21483;-73
2022/06/10 14:18:08;;;;;;;4.20;2.27;;;;;;;34.43;19.36;100032.59;1684385;83;21547;-73
2022/06/10 14:20:35;;;;;;;7.72;2.70;;;;;;;34.52;20.09;100019.90;1678496;85;21843;-73
2022/06/10 14:23:14;;;;;;;6.03;2.65;;;;;;;34.90;19.41;100025.58;1680051;85;21060;-73
2022/06/10 14:25:41;;;;;;;5.42;2.37;;;;;;;34.79;19.42;100024.03;1679479;85;21169;-73
2022/06/10 14:28:14;;;;;;;9.53;2.87;;;;;;;34.71;19.49;100018.06;1638529;85;21016;-73
2022/06/10 14:30:54;;;;;;;5.78;2.47;;;;;;;34.80;19.61;100018.24;1684190;85;21000;-73
2022/06/10 14:33:26;;;;;;;4.15;2.30;;;;;;;35.14;19.03;100020.10;1676217;85;22582;-72
2022/06/10 14:36:08;;;;;;;8.75;2.50;;;;;;;35.31;19.10;100019.03;1661854;86;20961;-73
2022/06/10 14:38:35;;;;;;;4.28;2.22;;;;;;;35.14;18.42;100020.10;1663866;85;27111;-72
2022/06/10 14:41:19;;;;;;;8.55;2.45;;;;;;;34.61;18.86;100014.05;1684583;85;21055;-72
2022/06/10 14:44:03;;;;;;;5.35;2.60;;;;;;;34.43;19.26;100016.96;1684915;85;21383;-72
2022/06/10 14:46:31;;;;;;;5.65;2.80;;;;;;;34.46;19.57;100016.96;1692373;84;21897;-74
2022/06/10 14:48:59;;;;;;;4.20;2.90;;;;;;;34.47;19.81;100005.44;1692656;84;21336;-73
2022/06/10 14:51:34;;;;;;;5.12;2.40;;;;;;;34.55;19.61;100004.26;1692566;84;20973;-73
2022/06/10 14:54:18;;;;;;;11.40;2.60;;;;;;;34.59;19.41;100003.93;1662908;86;20988;-72
2022/06/10 14:56:52;;;;;;;8.95;2.80;;;;;;;34.53;19.31;100000.14;1646509;85;20980;-72
2022/06/10 14:59:26;;;;;;;6.92;2.60;;;;;;;34.39;19.20;100006.87;1662734;86;21809;-73
2022/06/10 15:01:55;;;;;;;4.72;2.12;;;;;;;34.19;19.52;100006.47;1653269;86;21013;-73
2022/06/10 15:04:22;;;;;;;5.65;2.10;;;;;;;34.06;19.58;100009.30;1651686;85;21489;-73
2022/06/10 15:06:53;;;;;;;8.45;2.25;;;;;;;33.94;19.75;100012.14;1681425;85;21585;-72
2022/06/10 15:09:34;;;;;;;3.85;2.40;;;;;;;33.87;19.76;100011.05;1679700;85;21008;-72
2022/06/10 15:12:23;;;;;;;6.72;2.25;;;;;;;33.72;19.73;100002.95;1681886;85;21935;-72
2022/06/10 15:14:51;;;;;;;6.08;2.20;;;;;;;33.73;19.61;100005.95;1681419;85;20957;-72
2022/06/10 15:17:20;;;;;;;4.58;2.20;;;;;;;33.69;20.10;100001.61;1678389;85;21095;-72
2022/06/10 15:19:47;;;;;;;6.58;2.12;;;;;;;33.77;19.88;100005.09;1674673;85;21017;-72
2022/06/10 15:22:33;;;;;;;5.60;2.20;;;;;;;33.89;19.60;100004.79;1672399;85;21518;-72
2022/06/10 15:25:00;;;;;;;5.25;2.80;;;;;;;33.78;19.55;100009.49;1674230;85;22558;-73
2022/06/10 15:27:28;;;;;;;4.90;2.30;;;;;;;33.63;19.73;100009.58;1668587;85;21583;-73
2022/06/10 15:29:55;;;;;;;6.92;2.30;;;;;;;33.50;19.82;100006.92;1655636;86;20957;-73
2022/06/10 15:32:22;;;;;;;5.10;2.17;;;;;;;33.34;20.11;100014.91;1655241;85;21017;-72
2022/06/10 15:43:09;;;;;;;3.37;2.20;;;;;;;32.37;20.49;100010.21;1656419;85;20969;-72
2022/06/10 15:45:36;;;;;;;6.60;2.47;;;;;;;32.21;20.68;100010.72;1674499;85;20997;-73
2022/06/10 15:48:03;;;;;;;7.25;2.60;;;;;;;32.07;20.82;100009.09;1662915;85;21012;-74
2022/06/10 15:50:30;;;;;;;7.08;2.47;;;;;;;31.98;21.08;100011.27;1655552;86;21776;-73
2022/06/10 15:52:57;;;;;;;6.20;2.42;;;;;;;31.99;21.01;100007.45;1655246;86;20965;-73
2022/06/10 15:58:18;;;;;;;7.75;2.50;;;;;;;31.89;20.93;100014.53;1673715;85;21435;-72
2022/06/10 16:00:48;;;;;;;5.15;2.30;;;;;;;31.83;20.89;100016.97;1674640;85;20949;-73
2022/06/10 16:03:16;;;;;;;7.40;2.60;;;;;;;31.77;20.85;100013.98;1656591;85;22828;-73
2022/06/10 16:05:44;;;;;;;7.50;2.40;;;;;;;31.69;21.02;100011.73;1674474;85;20945;-73
2022/06/10 16:08:11;;;;;;;7.50;2.50;;;;;;;31.71;21.34;100012.83;1661013;85;21564;-74
2022/06/10 16:10:42;;;;;;;4.37;2.05;;;;;;;31.71;21.27;100009.55;1682828;85;21479;-73
2022/06/10 16:13:17;;;;;;;7.40;2.45;;;;;;;31.73;21.43;100010.64;1687733;84;21044;-74
2022/06/10 16:15:56;;;;;;;5.58;2.58;;;;;;;31.71;21.60;100017.75;1687648;84;20944;-73
2022/06/10 16:18:33;;;;;;;6.95;2.62;;;;;;;31.62;21.87;100015.27;1650181;85;21004;-73
2022/06/10 16:21:02;;;;;;;6.15;2.85;;;;;;;31.47;21.57;100016.61;1691589;83;21055;-72
2022/06/10 16:23:32;;;;;;;6.37;2.75;;;;;;;31.37;21.97;100010.57;1711645;82;21087;-74
2022/06/10 16:26:13;;;;;;;6.97;2.40;;;;;;;31.28;22.56;100017.08;1711789;82;21074;-74
2022/06/10 16:28:43;;;;;;;;;;;;;;;31.18;23.61;100013.47;1660065;83;21956;-74
2022/06/10 16:31:19;;;;;;;4.47;2.33;;;;;;;31.04;23.70;100013.11;1666359;86;20148;-74
2022/06/10 16:33:46;;;;;;;5.70;2.67;;;;;;;30.89;23.59;100011.14;1687339;84;21078;-73
2022/06/10 16:36:14;;;;;;;5.72;2.70;;;;;;;30.77;24.76;100004.50;1694716;84;21025;-73
2022/06/10 16:38:42;;;;;;;9.48;3.10;;;;;;;30.65;24.99;100007.16;1694064;84;21020;-72
2022/06/10 16:41:31;;;;;;;4.58;2.58;;;;;;;30.49;25.65;100004.83;1694733;83;21931;-72
2022/06/10 16:44:09;;;;;;;6.70;2.50;;;;;;;30.31;26.56;100003.37;1687053;85;21408;-74
2022/06/10 16:46:38;;;;;;;5.03;2.58;;;;;;;30.07;27.20;100010.23;1686723;85;20976;-73
2022/06/10 16:49:05;;;;;;;6.25;2.60;;;;;;;29.81;27.72;100001.78;1684166;84;20984;-73
2022/06/10 16:51:33;;;;;;;6.97;2.77;;;;;;;29.64;27.92;100008.70;1667296;85;21068;-72
2022/06/10 16:54:01;;;;;;;5.55;2.70;;;;;;;29.47;27.81;100009.30;1667203;86;21924;-73
2022/06/10 16:56:33;;;;;;;8.53;2.67;;;;;;;29.27;28.64;100003.63;1667341;86;21005;-73
2022/06/10 16:59:00;;;;;;;8.00;2.77;;;;;;;29.03;28.97;100007.93;1684276;84;21012;-74
2022/06/10 17:01:29;;;;;;;10.18;2.70;;;;;;;28.83;29.63;100006.27;1687056;84;20961;-73
2022/06/10 17:03:56;;;;;;;11.78;3.10;;;;;;;28.62;29.58;100005.16;1686998;85;21435;-73
2022/06/10 17:06:23;;;;;;;10.05;2.77;;;;;;;28.43;29.83;100000.52;1659773;85;21832;-73
2022/06/10 17:08:50;;;;;;;10.43;2.75;;;;;;;28.27;30.14;100002.66;1683227;84;21012;-73
2022/06/10 17:11:34;;;;;;;14.15;3.27;;;;;;;28.12;30.35;99998.36;1687107;84;21091;-72
2022/06/10 17:14:02;;;;;;;12.78;3.30;;;;;;;27.98;30.71;100003.27;1687067;85;21076;-73
2022/06/10 17:16:33;;;;;;;13.65;3.02;;;;;;;27.83;31.19;99998.41;1687055;85;21067;-73
2022/06/10 17:19:00;;;;;;;21.35;3.22;;;;;;;27.72;31.20;100003.90;1668730;84;21756;-73
2022/06/10 17:21:27;;;;;;;20.43;3.47;;;;;;;27.54;31.23;100002.17;1667841;85;21344;-74
2022/06/10 17:23:53;;;;;;;12.90;2.83;;;;;;;27.31;32.11;100008.48;1662972;85;21484;-73
2022/06/10 17:26:31;;;;;;;7.35;2.83;;;;;;;27.04;32.54;100010.92;1662634;85;21009;-74
2022/06/10 17:29:00;;;;;;;6.75;2.95;;;;;;;26.85;32.84;100010.73;1679487;84;21016;-73
2022/06/10 17:31:30;;;;;;;5.58;2.70;;;;;;;26.71;32.39;100008.25;1686036;85;21811;-73
2022/06/10 17:33:58;;;;;;;5.50;2.65;;;;;;;26.48;32.55;100010.44;1679995;85;21005;-73
2022/06/10 17:36:27;;;;;;;7.05;2.98;;;;;;;26.28;33.38;100012.63;1680404;85;21032;-72
2022/06/10 17:38:57;;;;;;;8.35;3.10;;;;;;;26.14;33.08;100015.23;1679820;84;20981;-73
2022/06/10 17:41:37;;;;;;;7.83;3.30;;;;;;;26.03;33.03;100012.80;1687610;83;21426;-73
2022/06/10 17:44:30;;;;;;;6.60;3.50;;;;;;;25.90;32.90;100007.07;1672749;85;21758;-72
2022/06/10 17:47:03;;;;;;;11.83;3.13;;;;;;;25.80;33.26;100010.05;1687764;84;20956;-72
2022/06/10 17:49:39;;;;;;;6.03;3.30;;;;;;;25.65;33.84;100024.76;1667296;84;21465;-73
2022/06/10 17:52:12;;;;;;;10.00;3.35;;;;;;;25.52;34.04;100024.13;1661401;84;21045;-73
2022/06/10 17:54:41;;;;;;;7.95;3.08;;;;;;;25.38;34.40;100022.09;1618029;87;21031;-72
2022/06/10 17:57:38;;;;;;;6.50;3.10;;;;;;;25.25;34.87;100019.56;1672325;84;21940;-74
2022/06/10 18:00:25;;;;;;;10.23;2.92;;;;;;;25.12;35.40;100027.31;1674066;85;20945;-73
2022/06/10 18:03:01;;;;;;;10.53;3.33;;;;;;;24.95;35.95;100027.03;1675045;85;21013;-73
2022/06/10 18:05:36;;;;;;;8.75;2.72;;;;;;;24.80;36.50;100032.81;1674974;85;21033;-73
2022/06/10 18:08:07;;;;;;;9.50;3.27;;;;;;;24.64;36.89;100029.85;1674279;85;21017;-72
2022/06/10 18:10:34;;;;;;;6.80;3.05;;;;;;;24.52;37.27;100035.98;1687829;85;22424;-73
2022/06/10 18:15:54;;;;;;;6.78;2.87;;;;;;;24.33;38.06;100038.84;1670214;85;21078;-72
2022/06/10 18:18:22;;;;;;;8.20;3.35;;;;;;;24.21;38.54;100049.46;1666555;84;21085;-73
2022/06/10 18:20:50;;;;;;;6.65;2.70;;;;;;;24.08;39.00;100061.19;1660688;86;21537;-73
2022/06/10 18:23:28;;;;;;;6.20;2.87;;;;;;;23.98;39.42;100056.79;1665711;86;22233;-73
2022/06/10 18:25:56;;;;;;;3.98;2.52;;;;;;;23.91;39.84;100058.69;1703893;84;20980;-73
2022/06/10 18:28:23;;;;;;;5.37;2.90;;;;;;;23.79;40.25;100057.73;1663671;84;21199;-72
2022/06/10 18:30:52;;;;;;;4.33;2.40;;;;;;;23.68;40.62;100063.28;1680361;85;21534;-73
2022/06/10 18:33:21;;;;;;;7.83;2.80;;;;;;;23.55;41.01;100065.49;1688498;85;21019;-74
2022/06/10 18:35:51;;;;;;;7.75;3.20;;;;;;;23.44;41.39;100067.48;1673654;85;21968;-73
2022/06/10 18:38:20;;;;;;;7.08;2.87;;;;;;;23.33;41.90;100066.80;1687825;83;20959;-73
2022/06/10 18:40:48;;;;;;;8.08;2.60;;;;;;;23.26;42.24;100068.67;1642411;86;20972;-73
2022/06/10 18:43:31;;;;;;;6.08;2.70;;;;;;;23.18;42.46;100075.15;1660873;86;20948;-73
2022/06/10 18:46:22;;;;;;;7.92;2.83;;;;;;;23.10;42.79;100074.02;1649756;85;21051;-72
2022/06/10 18:48:54;;;;;;;5.25;2.75;;;;;;;23.00;43.14;100074.98;1669546;84;21973;-74
2022/06/10 18:51:31;;;;;;;6.25;3.12;;;;;;;22.89;43.40;100071.58;1673795;85;21012;-73
2022/06/10 18:53:59;;;;;;;4.15;2.90;;;;;;;22.79;43.70;100074.15;1659296;84;20951;-72
2022/06/10 18:56:29;;;;;;;5.35;2.67;;;;;;;22.71;44.00;100077.56;1632282;88;21242;-72
2022/06/10 18:58:57;;;;;;;6.62;2.62;;;;;;;22.62;44.19;100082.33;1656982;85;20961;-73
2022/06/10 19:01:30;;;;;;;6.85;2.90;;;;;;;22.55;44.50;100088.22;1677194;85;22680;-72
2022/06/10 19:03:57;;;;;;;9.15;2.90;;;;;;;22.47;44.93;100088.42;1681943;85;21047;-72
2022/06/10 19:06:23;;;;;;;8.63;3.10;;;;;;;22.38;45.53;100087.78;1677445;85;21030;-72
2022/06/10 19:08:52;;;;;;;7.22;3.10;;;;;;;22.26;45.93;100092.13;1675851;84;21048;-73
2022/06/10 19:11:23;;;;;;;6.53;3.00;;;;;;;22.13;46.23;100090.77;1659541;85;21027;-73
2022/06/10 19:13:50;;;;;;;6.95;3.12;;;;;;;22.00;46.38;100096.41;1676957;85;21839;-73
2022/06/10 19:16:20;;;;;;;7.65;3.90;;;;;;;21.94;47.04;100100.41;1662605;84;20977;-74
2022/06/10 19:18:55;;;;;;;18.95;3.50;;;;;;;21.89;47.37;100101.52;1669500;84;20965;-72
2022/06/10 19:21:30;;;;;;;8.23;3.30;;;;;;;21.86;47.65;100101.41;1678850;85;21037;-73
2022/06/10 19:23:59;;;;;;;5.08;3.42;;;;;;;21.81;48.11;100106.58;1675253;85;21076;-73
2022/06/10 19:26:26;;;;;;;5.97;3.65;;;;;;;21.72;48.46;100107.78;1672033;85;22197;-74
2022/06/10 19:28:53;;;;;;;6.55;3.22;;;;;;;21.62;48.87;100106.81;1658142;84;21091;-74
2022/06/10 19:31:23;;;;;;;8.50;3.60;;;;;;;21.57;49.22;100112.46;1656840;86;21073;-74
2022/06/10 19:33:54;;;;;;;8.70;3.77;;;;;;;21.52;49.51;100109.52;1686594;84;20996;-75